createdAt,value
2022-11-18T00:01:53.568Z,8.40
2022-11-18T00:04:25.572Z,8.40
2022-11-18T00:06:57.688Z,8.40
2022-11-18T00:09:29.800Z,8.40
2022-11-18T00:12:20.212Z,8.40
2022-11-18T00:15:12.000Z,8.40
2022-11-18T00:17:46.090Z,8.40
2022-11-18T00:20:18.137Z,8.40
2022-11-18T00:22:50.137Z,8.40
2022-11-18T00:25:23.110Z,8.40
2022-11-18T00:27:58.284Z,8.30
2022-11-18T00:30:30.370Z,8.40
2022-11-18T00:33:02.332Z,8.30
2022-11-18T00:35:34.417Z,8.30
2022-11-18T00:38:06.412Z,8.30
2022-11-18T00:40:38.351Z,8.40
2022-11-18T00:43:10.382Z,8.40
2022-11-18T00:45:43.874Z,8.40
2022-11-18T00:48:21.516Z,8.40
2022-11-18T00:50:56.521Z,8.40
2022-11-18T00:53:29.810Z,8.40
2022-11-18T00:56:01.898Z,8.40
2022-11-18T00:58:34.537Z,8.40
2022-11-18T01:01:07.074Z,8.40
2022-11-18T01:03:40.082Z,8.40
2022-11-18T01:06:12.016Z,8.40
2022-11-18T01:08:44.009Z,8.40
2022-11-18T01:11:35.183Z,8.40
2022-11-18T01:14:26.955Z,8.40
2022-11-18T01:16:59.064Z,8.40
2022-11-18T01:19:31.138Z,8.40
2022-11-18T01:22:03.488Z,8.40
2022-11-18T01:24:35.806Z,8.40
2022-11-18T01:27:07.772Z,8.40
2022-11-18T01:29:39.730Z,8.40
2022-11-18T01:32:27.007Z,8.40
2022-11-18T01:34:59.416Z,8.40
2022-11-18T01:37:31.501Z,8.40
2022-11-18T01:40:08.828Z,8.40
2022-11-18T01:42:41.427Z,8.40
2022-11-18T01:45:24.774Z,8.40
2022-11-18T01:48:31.616Z,8.40
2022-11-18T01:51:12.200Z,8.40
2022-11-18T01:54:00.282Z,8.40
2022-11-18T01:56:44.986Z,8.40
2022-11-18T01:59:26.021Z,8.40
2022-11-18T02:02:05.316Z,8.40
2022-11-18T02:04:44.518Z,8.40
2022-11-18T02:07:21.114Z,8.40
2022-11-18T02:09:55.164Z,8.40
2022-11-18T02:12:28.333Z,8.40
2022-11-18T02:15:02.429Z,8.40
2022-11-18T02:17:40.812Z,8.40
2022-11-18T02:20:42.360Z,8.40
2022-11-18T02:23:38.554Z,8.40
2022-11-18T02:26:52.564Z,8.40
2022-11-18T02:29:55.762Z,8.40
2022-11-18T02:32:45.704Z,8.40
2022-11-18T02:35:40.716Z,8.40
2022-11-18T02:38:31.096Z,8.40
2022-11-18T02:41:32.584Z,8.30
2022-11-18T02:44:11.541Z,8.30
2022-11-18T02:46:50.989Z,8.30
2022-11-18T02:49:32.799Z,8.30
2022-11-18T02:52:11.808Z,8.30
2022-11-18T02:54:47.795Z,8.30
2022-11-18T02:57:22.624Z,8.30
2022-11-18T02:59:56.674Z,8.30
2022-11-18T03:02:29.021Z,8.30
2022-11-18T03:05:35.632Z,8.30
2022-11-18T03:08:20.252Z,8.30
2022-11-18T03:11:08.377Z,8.30
2022-11-18T03:14:20.669Z,8.30
2022-11-18T03:17:23.313Z,8.20
2022-11-18T03:20:10.541Z,8.20
2022-11-18T03:23:01.368Z,8.30
2022-11-18T03:25:41.731Z,8.20
2022-11-18T03:28:41.089Z,8.20
2022-11-18T03:31:26.470Z,8.20
2022-11-18T03:34:54.384Z,8.20
2022-11-18T03:37:35.541Z,8.20
2022-11-18T03:40:25.764Z,8.20
2022-11-18T03:43:09.053Z,8.20
2022-11-18T03:45:55.146Z,8.10
2022-11-18T03:48:55.240Z,8.20
2022-11-18T03:51:35.590Z,8.20
2022-11-18T03:54:29.841Z,8.20
2022-11-18T03:57:09.479Z,8.10
2022-11-18T03:59:52.367Z,8.10
2022-11-18T04:02:30.679Z,8.10
2022-11-18T04:05:05.403Z,8.10
2022-11-18T04:07:49.701Z,8.10
2022-11-18T04:10:35.726Z,8.10
2022-11-18T04:13:34.890Z,8.00
2022-11-18T04:16:09.794Z,8.00
2022-11-18T04:18:42.397Z,8.00
2022-11-18T04:21:14.430Z,8.00
2022-11-18T04:23:46.397Z,8.00
2022-11-18T04:26:18.471Z,8.00
2022-11-18T04:28:50.506Z,7.90
2022-11-18T04:31:22.405Z,7.90
2022-11-18T04:33:54.308Z,7.90
2022-11-18T04:36:26.433Z,7.90
2022-11-18T04:38:58.390Z,7.80
2022-11-18T04:41:48.806Z,7.80
2022-11-18T04:44:30.551Z,7.80
2022-11-18T04:47:06.033Z,7.80
2022-11-18T04:49:38.056Z,7.70
2022-11-18T04:52:10.007Z,7.70
2022-11-18T04:54:41.961Z,7.70
2022-11-18T04:57:14.189Z,7.70
2022-11-18T04:59:46.138Z,7.70
2022-11-18T05:02:18.018Z,7.70
2022-11-18T05:04:49.983Z,7.70
2022-11-18T05:07:21.925Z,7.60
2022-11-18T05:09:53.844Z,7.60
2022-11-18T05:12:44.531Z,7.60
2022-11-18T05:15:21.889Z,7.60
2022-11-18T05:17:55.185Z,7.60
2022-11-18T05:20:27.260Z,7.60
2022-11-18T05:22:59.271Z,7.60
2022-11-18T05:25:31.223Z,7.50
2022-11-18T05:28:03.299Z,7.50
2022-11-18T05:30:35.389Z,7.50
2022-11-18T05:33:07.372Z,7.50
2022-11-18T05:35:39.379Z,7.50
2022-11-18T05:38:11.263Z,7.50
2022-11-18T05:40:43.850Z,7.50
2022-11-18T05:43:15.763Z,7.50
2022-11-18T05:45:51.340Z,7.50
2022-11-18T05:48:24.166Z,7.50
2022-11-18T05:50:56.626Z,7.50
2022-11-18T05:53:28.587Z,7.50
2022-11-18T05:56:18.511Z,7.50
2022-11-18T05:59:23.872Z,7.50
2022-11-18T06:02:03.845Z,7.40
2022-11-18T06:04:53.236Z,7.40
2022-11-18T06:07:39.189Z,7.40
2022-11-18T06:10:28.626Z,7.40
2022-11-18T06:13:08.171Z,7.40
2022-11-18T06:15:46.427Z,7.40
2022-11-18T06:18:21.278Z,7.40
2022-11-18T06:21:01.070Z,7.40
2022-11-18T06:23:37.368Z,7.40
2022-11-18T06:26:12.113Z,7.40
2022-11-18T06:28:47.771Z,7.40
2022-11-18T06:31:19.954Z,7.40
2022-11-18T06:33:51.909Z,7.40
2022-11-18T06:36:23.969Z,7.40
2022-11-18T06:38:56.062Z,7.40
2022-11-18T06:41:33.994Z,7.40
2022-11-18T06:44:06.287Z,7.40
2022-11-18T06:46:57.322Z,7.40
2022-11-18T06:49:29.467Z,7.40
2022-11-18T06:52:01.378Z,7.40
2022-11-18T06:54:33.369Z,7.40
2022-11-18T06:57:05.263Z,7.40
2022-11-18T06:59:39.913Z,7.40
2022-11-18T07:02:12.324Z,7.40
2022-11-18T07:04:44.832Z,7.40
2022-11-18T07:07:17.214Z,7.40
2022-11-18T07:09:49.192Z,7.40
2022-11-18T07:12:21.249Z,7.40
2022-11-18T07:14:53.445Z,7.40
2022-11-18T07:17:25.440Z,7.40
2022-11-18T07:19:57.692Z,7.40
2022-11-18T07:22:29.632Z,7.40
2022-11-18T07:25:01.707Z,7.40
2022-11-18T07:27:33.912Z,7.40
2022-11-18T07:30:06.547Z,7.40
2022-11-18T07:32:39.041Z,7.40
2022-11-18T07:35:10.964Z,7.40
2022-11-18T07:37:43.042Z,7.50
2022-11-18T07:40:15.003Z,7.50
2022-11-18T07:42:47.396Z,7.50
2022-11-18T07:45:19.409Z,7.50
2022-11-18T07:47:51.847Z,7.50
2022-11-18T07:50:23.792Z,7.50
2022-11-18T07:52:57.218Z,7.50
2022-11-18T07:55:32.169Z,7.50
2022-11-18T07:58:04.577Z,7.60
2022-11-18T08:00:36.655Z,7.50
2022-11-18T08:03:12.449Z,7.60
2022-11-18T08:05:46.615Z,7.60
2022-11-18T08:08:18.593Z,7.60
2022-11-18T08:10:50.636Z,7.60
2022-11-18T08:13:27.848Z,7.70
2022-11-18T08:16:00.660Z,7.70
2022-11-18T08:18:33.681Z,7.70
2022-11-18T08:21:06.193Z,7.80
2022-11-18T08:23:41.956Z,7.80
2022-11-18T08:26:16.028Z,7.90
2022-11-18T08:28:49.514Z,7.90
2022-11-18T08:31:25.373Z,7.90
2022-11-18T08:34:05.156Z,7.90
2022-11-18T08:36:39.170Z,7.90
2022-11-18T08:39:12.729Z,7.90
2022-11-18T08:41:47.112Z,7.90
2022-11-18T08:44:19.854Z,8.00
2022-11-18T08:46:52.054Z,8.00
2022-11-18T08:49:28.240Z,8.00
2022-11-18T08:52:03.824Z,8.10
2022-11-18T08:54:36.420Z,8.10
2022-11-18T08:57:08.506Z,8.20
2022-11-18T08:59:40.570Z,8.20
2022-11-18T09:02:17.365Z,8.20
2022-11-18T09:04:53.235Z,8.30
2022-11-18T09:07:25.881Z,8.30
2022-11-18T09:09:58.124Z,8.30
2022-11-18T09:12:30.529Z,8.40
2022-11-18T09:15:18.903Z,8.40
2022-11-18T09:17:51.249Z,8.40
2022-11-18T09:20:24.377Z,8.40
2022-11-18T09:22:56.560Z,8.40
2022-11-18T09:25:29.703Z,8.40
2022-11-18T09:28:01.738Z,8.40
2022-11-18T09:30:33.976Z,8.40
2022-11-18T09:33:07.174Z,8.40
2022-11-18T09:35:42.955Z,8.40
2022-11-18T09:38:16.107Z,8.40
2022-11-18T09:41:10.233Z,8.40
2022-11-18T09:44:08.080Z,8.40
2022-11-18T09:47:02.775Z,8.30
2022-11-18T09:49:48.831Z,8.40
2022-11-18T09:52:34.332Z,8.40
2022-11-18T09:55:18.941Z,8.40
2022-11-18T09:57:55.780Z,8.40
2022-11-18T10:00:30.590Z,8.40
2022-11-18T10:03:12.483Z,8.40
2022-11-18T10:06:17.954Z,8.50
2022-11-18T10:09:18.343Z,8.50
2022-11-18T10:12:16.232Z,8.50
2022-11-18T10:15:04.788Z,8.60
2022-11-18T10:18:58.453Z,8.60
2022-11-18T10:22:16.745Z,8.70
2022-11-18T10:25:15.867Z,8.70
2022-11-18T10:27:50.107Z,8.70
2022-11-18T10:30:24.998Z,8.70
2022-11-18T10:32:57.206Z,8.70
2022-11-18T10:35:35.188Z,8.70
2022-11-18T10:38:14.697Z,8.80
2022-11-18T10:41:02.425Z,8.80
2022-11-18T10:43:54.351Z,8.80
2022-11-18T10:46:33.762Z,8.80
2022-11-18T10:49:10.580Z,8.90
2022-11-18T10:52:04.221Z,8.90
2022-11-18T10:54:42.035Z,8.90
2022-11-18T10:57:21.781Z,8.90
2022-11-18T10:59:57.774Z,8.90
2022-11-18T11:02:39.469Z,8.90
2022-11-18T11:05:22.828Z,8.90
2022-11-18T11:08:39.567Z,8.90
2022-11-18T11:12:02.853Z,8.90
2022-11-18T11:14:51.015Z,8.90
2022-11-18T11:18:09.981Z,8.90
2022-11-18T11:21:02.176Z,8.90
2022-11-18T11:23:34.917Z,8.80
2022-11-18T11:29:46.646Z,8.80
2022-11-18T11:33:03.180Z,8.90
2022-11-18T11:36:20.551Z,8.90
2022-11-18T11:39:39.026Z,9.00
2022-11-18T11:42:49.055Z,9.10
2022-11-18T11:45:59.791Z,9.20
2022-11-18T11:49:25.931Z,9.20
2022-11-18T11:52:29.917Z,9.30
2022-11-18T11:55:48.588Z,9.30
2022-11-18T11:58:48.815Z,9.40
2022-11-18T12:01:48.867Z,9.50
2022-11-18T12:04:44.266Z,9.50
2022-11-18T12:07:26.844Z,9.50
2022-11-18T12:10:31.703Z,9.50
2022-11-18T12:13:22.184Z,9.40
2022-11-18T12:16:23.875Z,9.40
2022-11-18T12:19:19.319Z,9.40
2022-11-18T12:21:58.614Z,9.30
2022-11-18T12:24:37.793Z,9.30
2022-11-18T12:27:32.720Z,9.30
2022-11-18T12:30:24.601Z,9.30
2022-11-18T12:32:58.413Z,9.20
2022-11-18T12:35:32.335Z,9.20
2022-11-18T12:38:04.688Z,9.20
2022-11-18T12:40:40.446Z,9.20
2022-11-18T12:43:48.268Z,9.20
2022-11-18T12:46:44.449Z,9.20
2022-11-18T12:49:22.035Z,9.10
2022-11-18T12:52:29.867Z,9.10
2022-11-18T12:55:25.893Z,9.10
2022-11-18T12:58:02.302Z,9.10
2022-11-18T13:00:52.404Z,9.00
2022-11-18T13:03:44.656Z,9.00
2022-11-18T13:06:28.659Z,8.90
2022-11-18T13:09:04.440Z,8.90
2022-11-18T13:11:55.922Z,8.90
2022-11-18T13:14:59.734Z,8.90
2022-11-18T13:18:13.265Z,8.80
2022-11-18T13:20:57.881Z,8.90
2022-11-18T13:23:54.866Z,9.10
2022-11-18T13:26:34.353Z,9.40
2022-11-18T13:29:06.634Z,9.60
2022-11-18T13:32:20.780Z,9.80
2022-11-18T13:35:11.985Z,9.80
2022-11-18T13:37:52.243Z,9.80
2022-11-18T13:40:38.187Z,9.80
2022-11-18T13:43:26.723Z,9.80
2022-11-18T13:46:07.055Z,9.70
2022-11-18T13:48:58.372Z,9.60
2022-11-18T13:51:31.334Z,9.50
2022-11-18T13:54:03.931Z,9.50
2022-11-18T13:56:36.365Z,9.40
2022-11-18T13:59:21.560Z,9.30
2022-11-18T14:01:58.830Z,9.30
2022-11-18T14:04:32.322Z,9.20
2022-11-18T14:07:34.208Z,9.20
2022-11-18T14:10:09.123Z,9.20
2022-11-18T14:13:15.204Z,9.10
2022-11-18T14:16:02.112Z,9.00
2022-11-18T14:18:54.106Z,9.00
2022-11-18T14:21:35.089Z,8.90
2022-11-18T14:24:14.992Z,8.80
2022-11-18T14:26:47.327Z,8.80
2022-11-18T14:29:23.467Z,8.70
2022-11-18T14:32:15.026Z,8.70
2022-11-18T14:35:00.932Z,8.70
2022-11-18T14:37:33.216Z,8.60
2022-11-18T14:40:05.687Z,8.70
2022-11-18T14:42:44.157Z,8.60
2022-11-18T14:45:16.292Z,8.60
2022-11-18T14:47:48.313Z,8.60
2022-11-18T14:50:20.413Z,8.60
2022-11-18T14:52:52.360Z,8.60
2022-11-18T14:55:24.866Z,8.60
2022-11-18T14:57:57.178Z,8.70
2022-11-18T15:00:29.784Z,8.70
2022-11-18T15:03:02.208Z,8.70
2022-11-18T15:05:34.296Z,8.70
2022-11-18T15:08:07.411Z,8.70
2022-11-18T15:10:39.626Z,8.70
2022-11-18T15:13:11.964Z,8.70
2022-11-18T15:15:43.979Z,8.70
2022-11-18T15:18:17.112Z,8.60
2022-11-18T15:20:49.227Z,8.70
2022-11-18T15:23:27.021Z,8.60
2022-11-18T15:26:03.459Z,8.60
2022-11-18T15:28:52.270Z,8.70
2022-11-18T15:31:26.661Z,8.70
2022-11-18T15:34:05.119Z,8.60
2022-11-18T15:36:39.003Z,8.60
2022-11-18T15:39:11.564Z,8.60
2022-11-18T15:41:44.668Z,8.60
2022-11-18T15:44:17.692Z,8.60
2022-11-18T15:46:50.698Z,8.60
2022-11-18T15:49:23.575Z,8.60
2022-11-18T15:51:56.222Z,8.50
2022-11-18T15:54:28.242Z,8.50
2022-11-18T15:57:00.386Z,8.50
2022-11-18T15:59:32.976Z,8.50
2022-11-18T16:02:06.174Z,8.50
2022-11-18T16:04:40.322Z,8.40
2022-11-18T16:07:12.578Z,8.40
2022-11-18T16:10:04.027Z,8.40
2022-11-18T16:12:55.959Z,8.40
2022-11-18T16:15:48.421Z,8.30
2022-11-18T16:18:20.728Z,8.30
2022-11-18T16:21:00.662Z,8.20
2022-11-18T16:23:32.962Z,8.20
2022-11-18T16:26:05.518Z,8.20
2022-11-18T16:28:40.062Z,8.20
2022-11-18T16:31:30.455Z,8.20
2022-11-18T16:34:25.177Z,8.20
2022-11-18T16:37:01.364Z,8.20
2022-11-18T16:39:33.430Z,8.20
2022-11-18T16:42:09.246Z,8.20
2022-11-18T16:44:42.369Z,8.20
2022-11-18T16:47:15.486Z,8.20
2022-11-18T16:49:47.729Z,8.10
2022-11-18T16:52:23.242Z,8.10
2022-11-18T16:54:56.415Z,8.10
2022-11-18T16:57:28.700Z,8.00
2022-11-18T17:00:03.670Z,8.00
2022-11-18T17:02:36.604Z,8.00
2022-11-18T17:05:08.822Z,7.90
2022-11-18T17:07:41.026Z,7.90
2022-11-18T17:10:19.812Z,7.90
2022-11-18T17:12:52.318Z,7.90
2022-11-18T17:15:24.440Z,7.90
2022-11-18T17:17:56.485Z,7.90
2022-11-18T17:20:28.694Z,7.80
2022-11-18T17:23:00.911Z,7.80
2022-11-18T17:25:34.389Z,7.90
2022-11-18T17:28:07.063Z,7.80
2022-11-18T17:30:39.816Z,7.90
2022-11-18T17:33:12.713Z,7.90
2022-11-18T17:35:46.077Z,7.90
2022-11-18T17:38:30.947Z,7.90
2022-11-18T17:41:06.892Z,7.90
2022-11-18T17:43:40.901Z,7.90
2022-11-18T17:46:13.370Z,7.80
2022-11-18T17:48:45.455Z,7.90
2022-11-18T17:51:19.925Z,7.80
2022-11-18T17:53:52.989Z,7.80
2022-11-18T17:56:25.603Z,7.80
2022-11-18T17:58:57.934Z,7.70
2022-11-18T18:01:30.219Z,7.70
2022-11-18T18:04:08.625Z,7.70
2022-11-18T18:06:41.508Z,7.70
2022-11-18T18:09:13.730Z,7.70
2022-11-18T18:11:46.556Z,7.70
2022-11-18T18:14:19.681Z,7.70
2022-11-18T18:16:52.352Z,7.70
2022-11-18T18:19:26.326Z,7.70
2022-11-18T18:21:59.563Z,7.60
2022-11-18T18:24:32.612Z,7.70
2022-11-18T18:27:05.364Z,7.70
2022-11-18T18:29:37.645Z,7.60
2022-11-18T18:32:09.947Z,7.60
2022-11-18T18:34:42.962Z,7.60
2022-11-18T18:37:15.273Z,7.70
2022-11-18T18:39:47.884Z,7.60
2022-11-18T18:42:20.112Z,7.60
2022-11-18T18:45:20.259Z,7.50
2022-11-18T18:48:12.037Z,7.50
2022-11-18T18:50:44.187Z,7.50
2022-11-18T18:53:16.351Z,7.40
2022-11-18T18:55:48.667Z,7.30
2022-11-18T18:58:27.256Z,7.30
2022-11-18T19:01:08.531Z,7.30
2022-11-18T19:03:44.212Z,7.20
2022-11-18T19:06:47.867Z,7.20
2022-11-18T19:09:11.987Z,7.20
2022-11-18T19:12:03.793Z,7.10
2022-11-18T19:14:55.756Z,7.10
2022-11-18T19:17:27.953Z,7.10
2022-11-18T19:20:18.755Z,7.10
2022-11-18T19:23:10.653Z,7.10
2022-11-18T19:25:44.094Z,7.20
2022-11-18T19:28:16.691Z,7.20
2022-11-18T19:30:48.837Z,7.20
2022-11-18T19:33:21.143Z,7.20
2022-11-18T19:35:53.690Z,7.20
2022-11-18T19:38:26.250Z,7.30
2022-11-18T19:41:12.199Z,7.30
2022-11-18T19:43:46.006Z,7.30
2022-11-18T19:46:18.826Z,7.30
2022-11-18T19:48:55.891Z,7.30
2022-11-18T19:51:28.550Z,7.30
2022-11-18T19:54:01.823Z,7.30
2022-11-18T19:56:35.553Z,7.30
2022-11-18T19:59:07.748Z,7.30
2022-11-18T20:01:43.410Z,7.30
2022-11-18T20:04:15.783Z,7.30
2022-11-18T20:06:47.951Z,7.30
2022-11-18T20:09:20.592Z,7.30
2022-11-18T20:11:54.407Z,7.40
2022-11-18T20:14:26.782Z,7.30
2022-11-18T20:16:59.066Z,7.30
2022-11-18T20:19:31.133Z,7.30
2022-11-18T20:22:03.149Z,7.30
2022-11-18T20:24:35.295Z,7.30
2022-11-18T20:27:33.769Z,7.20
2022-11-18T20:30:07.470Z,7.20
2022-11-18T20:32:40.237Z,7.20
2022-11-18T20:35:13.114Z,7.10
2022-11-18T20:37:45.977Z,7.10
2022-11-18T20:40:18.222Z,7.10
2022-11-18T20:43:09.076Z,7.10
2022-11-18T20:45:53.021Z,7.10
2022-11-18T20:48:27.834Z,7.10
2022-11-18T20:51:28.181Z,7.00
2022-11-18T20:54:01.022Z,7.00
2022-11-18T20:56:40.805Z,6.90
2022-11-18T20:59:13.992Z,6.90
2022-11-18T21:01:47.242Z,6.90
2022-11-18T21:04:20.413Z,6.90
2022-11-18T21:07:01.310Z,6.90
2022-11-18T21:09:35.268Z,6.90
2022-11-18T21:12:09.119Z,6.90
2022-11-18T21:14:41.714Z,6.90
2022-11-18T21:17:14.672Z,6.90
2022-11-18T21:19:48.632Z,6.90
2022-11-18T21:22:20.995Z,6.80
2022-11-18T21:24:53.113Z,6.80
2022-11-18T21:27:25.315Z,6.80
2022-11-18T21:29:57.397Z,6.80
2022-11-18T21:32:30.312Z,6.70
2022-11-18T21:35:02.975Z,6.70
2022-11-18T21:37:35.937Z,6.80
2022-11-18T21:40:08.690Z,6.80
2022-11-18T21:42:41.430Z,6.70
2022-11-18T21:45:17.092Z,6.80
2022-11-18T21:47:49.298Z,6.80
2022-11-18T21:50:21.413Z,6.80
2022-11-18T21:52:53.538Z,6.80
2022-11-18T21:55:25.595Z,6.80
2022-11-18T21:58:02.825Z,6.80
2022-11-18T22:00:36.077Z,6.80
2022-11-18T22:03:10.583Z,6.80
2022-11-18T22:05:42.978Z,6.80
2022-11-18T22:08:15.002Z,6.80
2022-11-18T22:10:48.629Z,6.80
2022-11-18T22:13:20.602Z,6.80
2022-11-18T22:16:08.592Z,6.80
2022-11-18T22:18:44.575Z,6.90
2022-11-18T22:21:20.072Z,6.90
2022-11-18T22:23:55.230Z,6.90
2022-11-18T22:26:29.673Z,6.90
2022-11-18T22:29:01.766Z,6.90
2022-11-18T22:31:34.919Z,6.90
2022-11-18T22:34:07.128Z,6.90
2022-11-18T22:36:40.336Z,6.90
2022-11-18T22:39:12.819Z,6.90
2022-11-18T22:42:03.707Z,6.80
2022-11-18T22:44:55.361Z,6.80
2022-11-18T22:47:27.788Z,6.80
2022-11-18T22:49:59.768Z,6.80
2022-11-18T22:52:31.834Z,6.70
2022-11-18T22:55:04.254Z,6.70
2022-11-18T22:57:37.273Z,6.70
2022-11-18T23:00:10.346Z,6.70
2022-11-18T23:02:43.471Z,6.70
2022-11-18T23:05:15.497Z,6.70
2022-11-18T23:07:47.537Z,6.70
2022-11-18T23:10:19.645Z,6.70
2022-11-18T23:13:10.161Z,6.70
2022-11-18T23:16:02.511Z,6.70
2022-11-18T23:18:35.313Z,6.70
2022-11-18T23:21:07.668Z,6.70
2022-11-18T23:23:39.690Z,6.70
2022-11-18T23:26:14.579Z,6.70
2022-11-18T23:28:47.134Z,6.70
2022-11-18T23:31:22.230Z,6.70
2022-11-18T23:33:57.024Z,6.70
2022-11-18T23:36:29.443Z,6.70
2022-11-18T23:39:01.500Z,6.70
2022-11-18T23:41:33.732Z,6.70
2022-11-18T23:44:06.582Z,6.70
2022-11-18T23:46:38.757Z,6.70
2022-11-18T23:49:10.963Z,6.70
2022-11-18T23:51:43.517Z,6.70
2022-11-18T23:54:15.537Z,6.70
2022-11-18T23:56:47.543Z,6.70
2022-11-18T23:59:19.787Z,6.70
